Time;durP1;ratioP1;P1;durP2;ratioP2;P2;SDS_P1;SDS_P2;PMS_P1;PMS_P2;Temp;Humidity;BMP_temperature;BMP_pressure;BME280_temperature;BME280_humidity;BME280_pressure;Samples;Min_cycle;Max_cycle;Signal;HPM_P1;HPM_P2
2022/04/16 00:01:37;;;;;;;40.03;36.92;;;;;;;6.87;100.00;100901.69;4982544;28;20062;-90
2022/04/16 00:04:10;;;;;;;37.65;34.58;;;;;;;6.88;100.00;100897.22;4995974;28;20042;-89
2022/04/16 00:06:36;;;;;;;;;;;;;;;7.05;100.00;100889.97;4996137;28;20446;-89
2022/04/16 00:09:04;;;;;;;41.25;38.45;;;;;;;7.20;100.00;100887.38;4991454;28;19933;-89
2022/04/16 00:11:31;;;;;;;37.15;34.45;;;;;;;7.25;100.00;100890.31;4995670;28;20054;-89
2022/04/16 00:13:58;;;;;;;35.47;32.72;;;;;;;6.94;100.00;100890.41;4996017;28;20058;-90
2022/04/16 00:16:29;;;;;;;39.08;35.97;;;;;;;7.05;100.00;100885.53;4995778;28;20054;-89
2022/04/16 00:18:56;;;;;;;39.45;36.17;;;;;;;6.93;100.00;100884.31;4995945;28;20043;-89
2022/04/16 00:21:23;;;;;;;35.92;33.25;;;;;;;6.65;100.00;100881.38;4995574;28;20060;-90
2022/04/16 00:23:50;;;;;;;36.30;33.65;;;;;;;6.71;100.00;100880.66;4995056;28;20081;-90
2022/04/16 00:26:17;;;;;;;35.08;32.88;;;;;;;6.91;100.00;100882.84;4995207;28;20534;-89
2022/04/16 00:28:44;;;;;;;34.28;31.92;;;;;;;7.01;100.00;100872.84;4995346;28;20053;-90
2022/04/16 00:31:12;;;;;;;34.42;32.00;;;;;;;6.36;100.00;100876.81;4995538;28;20054;-89
2022/04/16 00:33:42;;;;;;;36.35;33.88;;;;;;;6.11;100.00;100870.81;4995219;28;20054;-89
2022/04/16 00:36:09;;;;;;;37.85;35.10;;;;;;;6.14;100.00;100867.84;4995525;28;20538;-89
2022/04/16 00:38:36;;;;;;;37.58;34.65;;;;;;;6.46;100.00;100879.22;4995804;28;20046;-90
2022/04/16 00:41:04;;;;;;;35.70;32.53;;;;;;;6.24;100.00;100876.38;4994843;28;20050;-90
2022/04/16 00:43:33;;;;;;;35.13;32.33;;;;;;;6.22;100.00;100864.34;4993551;28;20050;-89
2022/04/16 00:46:00;;;;;;;37.60;34.90;;;;;;;5.73;100.00;100874.09;4994926;28;20066;-90
2022/04/16 00:48:27;;;;;;;37.75;35.13;;;;;;;6.21;100.00;100868.00;4995524;28;20046;-89
2022/04/16 00:50:57;;;;;;;37.20;34.63;;;;;;;6.27;100.00;100865.47;4994601;28;20133;-89
2022/04/16 00:53:27;;;;;;;41.45;38.03;;;;;;;6.03;100.00;100862.97;4994804;28;20073;-90
2022/04/16 00:55:54;;;;;;;34.35;31.75;;;;;;;5.93;100.00;100866.66;4994927;28;20507;-90
2022/04/16 00:58:25;;;;;;;38.20;34.97;;;;;;;6.12;100.00;100869.84;4994811;28;20117;-89
2022/04/16 01:00:57;;;;;;;38.75;35.78;;;;;;;6.06;100.00;100855.53;4994454;28;20500;-89
2022/04/16 01:03:26;;;;;;;39.30;36.03;;;;;;;6.25;100.00;100862.19;4995396;28;20132;-90
2022/04/16 01:05:55;;;;;;;39.70;36.40;;;;;;;6.40;100.00;100857.78;4994501;28;20141;-89
2022/04/16 01:08:23;;;;;;;36.15;33.38;;;;;;;6.16;100.00;100858.75;4994282;28;20145;-89
2022/04/16 01:10:50;;;;;;;38.58;35.67;;;;;;;6.11;100.00;100858.47;4994308;28;20078;-89
2022/04/16 01:13:18;;;;;;;39.08;36.08;;;;;;;6.27;100.00;100860.19;4994368;28;20056;-89
2022/04/16 01:15:45;;;;;;;36.55;33.95;;;;;;;5.93;100.00;100852.63;4994328;28;20502;-89
2022/04/16 01:18:12;;;;;;;35.55;32.85;;;;;;;6.01;100.00;100860.50;4995229;28;20050;-89
2022/04/16 01:20:41;;;;;;;41.53;37.88;;;;;;;5.93;100.00;100856.09;4994634;28;20078;-90
2022/04/16 01:23:09;;;;;;;37.05;34.35;;;;;;;5.79;100.00;100856.78;4994597;28;20419;-89
2022/04/16 01:25:37;;;;;;;42.72;38.83;;;;;;;5.60;100.00;100854.53;4994323;28;20049;-89
2022/04/16 01:28:05;;;;;;;39.55;36.13;;;;;;;5.33;100.00;100858.41;4993914;28;20473;-90
2022/04/16 01:30:34;;;;;;;37.25;33.92;;;;;;;5.48;100.00;100862.00;4994769;28;20046;-90
2022/04/16 01:33:03;;;;;;;36.22;32.95;;;;;;;5.47;100.00;100860.34;4994978;28;20054;-90
2022/04/16 01:35:30;;;;;;;36.80;33.80;;;;;;;5.48;100.00;100868.09;4994246;28;20141;-89
2022/04/16 01:38:00;;;;;;;37.85;34.95;;;;;;;5.44;100.00;100866.75;4993848;28;20061;-89
2022/04/16 01:40:29;;;;;;;39.22;35.55;;;;;;;5.64;100.00;100859.31;4994349;28;20050;-90
2022/04/16 01:42:58;;;;;;;37.25;34.45;;;;;;;5.68;100.00;100873.78;4994070;28;20439;-90
2022/04/16 01:45:25;;;;;;;33.60;31.15;;;;;;;6.00;100.00;100865.97;4994455;28;20120;-89
2022/04/16 01:47:52;;;;;;;37.95;35.15;;;;;;;5.91;100.00;100871.22;4993466;28;20074;-87
2022/04/16 01:50:23;;;;;;;36.45;33.47;;;;;;;6.32;100.00;100873.66;4993641;28;20566;-89
2022/04/16 01:52:52;;;;;;;37.80;35.10;;;;;;;6.21;100.00;100876.72;4993903;28;20055;-89
2022/04/16 01:55:19;;;;;;;37.63;34.70;;;;;;;6.18;100.00;100871.78;4993590;28;20050;-89
2022/04/16 01:57:47;;;;;;;36.83;34.33;;;;;;;6.20;100.00;100877.69;4993696;28;20047;-89
2022/04/16 02:02:50;;;;;;;36.83;34.30;;;;;;;5.85;100.00;100874.56;4987884;23;20102;-90
2022/04/16 02:05:17;;;;;;;40.50;37.47;;;;;;;5.88;100.00;100881.28;4973266;28;20050;-90
2022/04/16 02:07:46;;;;;;;39.03;36.03;;;;;;;5.84;100.00;100882.63;4973919;28;20046;-90
2022/04/16 02:10:16;;;;;;;40.35;37.35;;;;;;;5.70;100.00;100884.97;4973257;28;20141;-90
2022/04/16 02:12:52;;;;;;;44.70;41.60;;;;;;;5.39;100.00;100886.72;4973413;28;20055;-90
2022/04/16 02:15:21;;;;;;;41.95;38.75;;;;;;;5.54;100.00;100886.81;4972832;28;20054;-91
2022/04/16 02:17:49;;;;;;;38.65;35.58;;;;;;;5.11;100.00;100878.34;4974654;28;20054;-90
2022/04/16 02:20:16;;;;;;;42.40;39.30;;;;;;;5.27;100.00;100876.53;4972499;28;20047;-90
2022/04/16 02:22:46;;;;;;;42.00;38.90;;;;;;;5.60;100.00;100884.38;4973619;28;20066;-90
2022/04/16 02:25:15;;;;;;;39.63;36.75;;;;;;;5.44;100.00;100890.47;4973680;28;20062;-90
2022/04/16 02:27:44;;;;;;;40.70;37.70;;;;;;;5.61;100.00;100877.28;4973483;28;20050;-89
2022/04/16 02:30:14;;;;;;;41.47;38.67;;;;;;;5.97;100.00;100873.22;4974109;28;20043;-90
2022/04/16 02:32:44;;;;;;;41.60;38.80;;;;;;;5.68;100.00;100876.41;4967074;28;20459;-90
2022/04/16 02:35:13;;;;;;;46.20;43.28;;;;;;;5.98;100.00;100874.03;4973713;28;20066;-90
2022/04/16 02:37:40;;;;;;;40.70;38.08;;;;;;;5.67;100.00;100873.97;4973677;28;20475;-90
2022/04/16 02:40:10;;;;;;;39.90;37.13;;;;;;;5.60;100.00;100872.97;4973777;28;20061;-91
2022/04/16 02:42:38;;;;;;;37.22;34.42;;;;;;;5.58;100.00;100882.88;4973353;28;20129;-90
2022/04/16 02:47:52;;;;;;;48.78;45.50;;;;;;;5.58;100.00;100877.59;4971052;28;20162;-90
2022/04/16 02:50:19;;;;;;;42.65;39.65;;;;;;;5.54;100.00;100874.50;4972844;28;20552;-90
2022/04/16 02:52:47;;;;;;;42.63;39.55;;;;;;;5.58;100.00;100877.59;4973393;28;20046;-91
2022/04/16 02:55:16;;;;;;;43.58;40.38;;;;;;;5.26;100.00;100877.53;4973269;28;20654;-90
2022/04/16 02:57:44;;;;;;;46.10;42.83;;;;;;;5.23;100.00;100869.09;4973548;28;20054;-90
2022/04/16 03:00:13;;;;;;;45.90;42.85;;;;;;;5.17;100.00;100873.22;4973477;28;20158;-90
2022/04/16 03:02:39;;;;;;;41.47;38.80;;;;;;;5.15;100.00;100872.59;4971875;28;20082;-90
2022/04/16 03:05:11;;;;;;;37.55;34.90;;;;;;;5.54;100.00;100876.28;4985729;28;20447;-90
2022/04/16 03:07:38;;;;;;;40.63;37.90;;;;;;;5.49;100.00;100871.53;4992353;28;20050;-90
2022/04/16 03:10:09;;;;;;;42.10;39.30;;;;;;;5.00;100.00;100871.63;4992639;28;20057;-90
2022/04/16 03:12:51;;;;;;;40.97;38.17;;;;;;;5.00;100.00;100876.88;4992468;28;20046;-90
2022/04/16 03:18:09;;;;;;;38.67;35.80;;;;;;;5.00;100.00;100875.06;4993224;28;20100;-90
2022/04/16 03:20:40;;;;;;;39.85;36.95;;;;;;;4.72;100.00;100882.47;4992199;28;20050;-90
2022/04/16 03:23:09;;;;;;;39.22;36.03;;;;;;;5.03;100.00;100877.38;4988562;28;20049;-90
2022/04/16 03:25:40;;;;;;;39.13;36.05;;;;;;;4.91;100.00;100881.31;4991797;28;20467;-90
2022/04/16 03:28:07;;;;;;;35.22;32.28;;;;;;;4.89;100.00;100878.03;4992302;28;20117;-90
2022/04/16 03:30:34;;;;;;;36.40;33.60;;;;;;;4.83;100.00;100876.06;4992556;28;20058;-91
2022/04/16 03:33:01;;;;;;;36.92;34.15;;;;;;;4.80;100.00;100882.47;4993421;28;20089;-90
2022/04/16 03:35:30;;;;;;;35.90;32.92;;;;;;;4.71;100.00;100883.44;4992626;28;20050;-90
2022/04/16 03:37:58;;;;;;;37.40;34.38;;;;;;;5.11;100.00;100876.53;4992347;28;20491;-91
2022/04/16 03:40:26;;;;;;;36.22;33.17;;;;;;;4.63;100.00;100874.72;4991993;28;20061;-90
2022/04/16 03:42:55;;;;;;;35.30;32.50;;;;;;;4.93;100.00;100889.91;4983873;28;20507;-90
2022/04/16 03:45:23;;;;;;;37.40;34.47;;;;;;;5.47;100.00;100895.41;4992485;28;20080;-90
2022/04/16 03:47:51;;;;;;;37.28;34.47;;;;;;;5.73;100.00;100899.63;4992761;28;20046;-91
2022/04/16 03:50:19;;;;;;;32.50;30.23;;;;;;;5.59;100.00;100900.31;4991408;28;20404;-90
2022/04/16 03:52:53;;;;;;;35.47;32.45;;;;;;;5.28;100.00;100904.50;4992212;28;20062;-90
2022/04/16 04:00:58;;;;;;;33.95;31.55;;;;;;;5.51;100.00;100902.00;4991798;28;20161;-90
2022/04/16 04:03:25;;;;;;;34.50;31.67;;;;;;;5.68;100.00;100899.31;4992984;28;20495;-91
2022/04/16 04:05:56;;;;;;;37.15;33.78;;;;;;;5.98;100.00;100889.84;4992018;28;20054;-90
2022/04/16 04:08:25;;;;;;;37.10;33.97;;;;;;;5.83;100.00;100888.88;4992040;28;20509;-91
2022/04/16 04:10:57;;;;;;;35.70;32.83;;;;;;;6.20;100.00;100888.25;4992357;28;20043;-91
2022/04/16 04:13:31;;;;;;;37.47;34.20;;;;;;;6.14;100.00;100899.50;4988283;28;20492;-90
2022/04/16 04:15:57;;;;;;;35.17;32.47;;;;;;;6.28;100.00;100897.94;4992213;28;20089;-90
2022/04/16 04:18:27;;;;;;;36.95;34.17;;;;;;;6.81;100.00;100907.69;4995984;28;20428;-90
2022/04/16 04:20:54;;;;;;;34.78;32.22;;;;;;;7.07;100.00;100903.84;4995692;28;20051;-90
2022/04/16 04:23:22;;;;;;;34.85;32.17;;;;;;;7.28;100.00;100908.44;4995387;28;20499;-90
2022/04/16 04:25:49;;;;;;;34.58;31.98;;;;;;;7.44;100.00;100910.91;4994862;28;20105;-90
2022/04/16 04:28:17;;;;;;;35.65;33.05;;;;;;;7.67;100.00;100912.69;4995330;28;20046;-90
2022/04/16 04:30:45;;;;;;;37.33;34.80;;;;;;;7.58;100.00;100902.19;4995460;28;20050;-90
2022/04/16 04:33:14;;;;;;;31.23;29.17;;;;;;;7.77;100.00;100907.91;4995966;28;20484;-90
2022/04/16 04:35:40;;;;;;;34.03;31.65;;;;;;;7.92;100.00;100911.38;4995347;28;20050;-90
2022/04/16 04:38:07;;;;;;;32.80;30.50;;;;;;;8.12;100.00;100921.41;4994980;28;20046;-90
2022/04/16 04:40:34;;;;;;;33.05;30.85;;;;;;;8.23;100.00;100919.13;4994974;28;20039;-89
2022/04/16 04:43:01;;;;;;;35.40;32.67;;;;;;;8.38;100.00;100923.53;4994548;28;20054;-90
2022/04/16 04:45:32;;;;;;;33.35;31.05;;;;;;;8.23;100.00;100918.31;4994903;28;20522;-90
2022/04/16 04:47:58;;;;;;;31.88;29.58;;;;;;;8.55;100.00;100924.16;4995557;28;20053;-90
2022/04/16 04:50:26;;;;;;;34.53;32.22;;;;;;;8.52;100.00;100928.00;4994535;28;20046;-90
2022/04/16 04:52:53;;;;;;;36.28;33.67;;;;;;;8.87;100.00;100931.63;4995078;28;20046;-90
2022/04/16 04:55:20;;;;;;;33.35;30.85;;;;;;;9.37;100.00;100921.84;4995189;28;20047;-90
2022/04/16 04:57:48;;;;;;;34.38;31.75;;;;;;;9.13;100.00;100935.53;4994820;28;20042;-90
2022/04/16 05:00:15;;;;;;;32.92;30.15;;;;;;;9.44;100.00;100927.22;4994480;28;20050;-90
2022/04/16 05:02:45;;;;;;;31.88;29.48;;;;;;;9.32;100.00;100932.22;4995064;28;20400;-90
2022/04/16 05:05:13;;;;;;;33.03;30.63;;;;;;;9.20;100.00;100933.78;4994700;28;20085;-90
2022/04/16 05:07:40;;;;;;;35.97;32.97;;;;;;;9.64;100.00;100938.75;4994581;28;20104;-90
2022/04/16 05:10:10;;;;;;;33.92;31.27;;;;;;;9.94;100.00;100927.91;4994204;28;20519;-90
2022/04/16 05:12:37;;;;;;;34.45;31.92;;;;;;;10.03;100.00;100931.25;4993912;28;20046;-90
2022/04/16 05:15:05;;;;;;;33.15;30.60;;;;;;;9.94;100.00;100924.47;4994551;28;20059;-90
2022/04/16 05:17:37;;;;;;;35.88;33.22;;;;;;;10.51;100.00;100936.56;4995011;28;20059;-90
2022/04/16 05:20:10;;;;;;;33.20;30.70;;;;;;;10.66;100.00;100923.13;4994459;28;20509;-89
2022/04/16 05:22:38;;;;;;;;;;;;;;;10.91;100.00;100923.34;4994700;28;20514;-90
2022/04/16 05:25:06;;;;;;;32.08;30.00;;;;;;;10.86;100.00;100928.44;4994512;28;20339;-91
2022/04/16 05:27:34;;;;;;;31.48;29.38;;;;;;;10.98;100.00;100929.47;4994172;28;20054;-90
2022/04/16 05:30:12;;;;;;;34.00;31.80;;;;;;;11.08;100.00;100939.75;4984716;28;20053;-90
2022/04/16 05:32:42;;;;;;;33.67;31.48;;;;;;;11.06;100.00;100933.78;4987008;28;20089;-90
2022/04/16 05:35:11;;;;;;;32.17;30.08;;;;;;;11.48;100.00;100934.41;4994621;28;20534;-91
2022/04/16 05:37:38;;;;;;;30.83;28.67;;;;;;;11.40;100.00;100943.41;4994123;28;20050;-90
2022/04/16 05:40:20;;;;;;;31.90;30.10;;;;;;;11.54;100.00;100946.88;4993911;28;20113;-91
2022/04/16 05:42:48;;;;;;;31.92;30.13;;;;;;;11.81;100.00;100948.47;4987857;28;20054;-91
2022/04/16 05:45:15;;;;;;;30.83;29.10;;;;;;;12.17;100.00;100939.19;4980168;28;20491;-90
2022/04/16 05:47:48;;;;;;;32.20;30.00;;;;;;;12.46;100.00;100948.47;4994755;28;20055;-90
2022/04/16 05:50:16;;;;;;;32.40;30.25;;;;;;;13.01;100.00;100955.91;4992876;28;20285;-90
2022/04/16 05:52:43;;;;;;;32.33;30.33;;;;;;;13.09;100.00;100953.00;4993764;28;20058;-90
2022/04/16 05:55:13;;;;;;;32.38;30.45;;;;;;;13.49;100.00;100953.53;4993318;28;20061;-90
2022/04/16 05:57:41;;;;;;;32.13;30.13;;;;;;;13.63;100.00;100951.53;4993600;28;20451;-90
2022/04/16 06:00:13;;;;;;;33.15;31.08;;;;;;;13.68;100.00;100964.25;4994042;28;20525;-91
2022/04/16 06:02:42;;;;;;;31.73;29.73;;;;;;;13.83;100.00;100959.38;4985727;28;20066;-91
2022/04/16 06:05:13;;;;;;;34.13;31.45;;;;;;;13.92;100.00;100958.03;4994034;28;20050;-90
2022/04/16 06:07:42;;;;;;;42.13;38.80;;;;;;;14.10;100.00;100954.56;4993402;28;20422;-90
2022/04/16 06:10:10;;;;;;;46.30;42.38;;;;;;;14.39;100.00;100960.16;4992901;28;20467;-90
2022/04/16 06:12:37;;;;;;;42.45;39.65;;;;;;;14.51;100.00;100962.88;4993665;28;20108;-91
2022/04/16 06:15:04;;;;;;;64.57;58.50;;;;;;;14.48;100.00;100961.47;4993061;28;20050;-90
2022/04/16 06:17:33;;;;;;;57.17;52.25;;;;;;;14.75;100.00;100956.63;4994050;28;20061;-91
2022/04/16 06:20:00;;;;;;;63.40;57.90;;;;;;;14.77;100.00;100959.88;4993034;28;20066;-91
2022/04/16 06:22:27;;;;;;;72.63;66.90;;;;;;;15.03;100.00;100960.53;4992954;28;20047;-89
2022/04/16 06:24:55;;;;;;;61.00;56.30;;;;;;;15.08;100.00;100961.47;4993206;28;20478;-90
2022/04/16 06:27:22;;;;;;;67.57;62.78;;;;;;;15.31;100.00;100962.53;4984804;28;20046;-90
2022/04/16 06:29:51;;;;;;;64.45;59.80;;;;;;;15.42;100.00;100972.44;4992782;28;20047;-91
2022/04/16 06:32:18;;;;;;;69.10;63.88;;;;;;;15.47;100.00;100961.88;4994148;28;20424;-91
2022/04/16 06:34:49;;;;;;;65.13;60.42;;;;;;;15.44;100.00;100958.84;4993325;28;20062;-90
2022/04/16 06:37:16;;;;;;;61.78;57.28;;;;;;;15.74;100.00;100954.22;4993318;28;20470;-91
2022/04/16 06:39:42;;;;;;;61.22;56.85;;;;;;;15.76;100.00;100954.81;4992016;28;20117;-91
2022/04/16 06:42:15;;;;;;;62.45;57.75;;;;;;;15.85;100.00;100949.88;4992244;28;20542;-91
2022/04/16 06:44:42;;;;;;;64.70;59.42;;;;;;;16.23;100.00;100954.69;4993394;28;20054;-91
2022/04/16 06:47:09;;;;;;;63.10;58.38;;;;;;;16.06;100.00;100951.13;4992927;28;20055;-90
2022/04/16 06:49:36;;;;;;;61.20;56.42;;;;;;;16.57;100.00;100941.41;4992805;28;20042;-90
2022/04/16 06:52:03;;;;;;;57.17;52.67;;;;;;;16.86;100.00;100954.84;4992684;28;20512;-91
2022/04/16 06:54:30;;;;;;;60.75;56.05;;;;;;;16.76;100.00;100943.91;4992479;28;20436;-90
2022/04/16 06:56:57;;;;;;;65.72;60.50;;;;;;;16.40;91.93;100945.91;4992808;28;20097;-90
2022/04/16 06:59:25;;;;;;;64.13;59.22;;;;;;;16.45;93.34;100944.13;4993233;28;20053;-91
2022/04/16 07:01:52;;;;;;;63.00;58.47;;;;;;;16.84;89.13;100940.84;4992694;28;20049;-90
2022/04/16 07:04:19;;;;;;;69.53;64.00;;;;;;;16.62;85.39;100946.06;4992555;28;20046;-91
2022/04/16 07:06:45;;;;;;;70.28;64.88;;;;;;;16.18;82.37;100951.09;4992400;28;20100;-90
2022/04/16 07:09:14;;;;;;;64.85;60.05;;;;;;;16.29;85.28;100944.91;4992021;28;20556;-91
2022/04/16 07:11:46;;;;;;;61.20;56.90;;;;;;;15.88;85.12;100954.75;4992739;28;20100;-91
2022/04/16 07:14:13;;;;;;;65.23;60.30;;;;;;;15.53;88.93;100958.25;4990111;28;20492;-90
2022/04/16 07:16:41;;;;;;;68.82;63.85;;;;;;;15.08;95.64;100955.31;4992521;28;20043;-91
2022/04/16 07:19:09;;;;;;;68.43;63.20;;;;;;;16.28;82.94;100962.03;4992121;28;20047;-91
2022/04/16 07:21:38;;;;;;;68.43;63.63;;;;;;;16.33;76.82;100951.41;4991913;28;20051;-90
2022/04/16 07:24:05;;;;;;;67.25;62.55;;;;;;;16.36;80.88;100940.19;4992172;28;20058;-91
2022/04/16 07:26:32;;;;;;;69.00;63.95;;;;;;;16.63;73.73;100947.69;4990145;28;20057;-89
2022/04/16 07:28:59;;;;;;;67.45;62.35;;;;;;;16.66;77.55;100950.69;4992831;28;20074;-90
2022/04/16 07:31:26;;;;;;;62.50;57.92;;;;;;;16.87;77.64;100948.41;4991740;28;20499;-89
2022/04/16 07:33:54;;;;;;;65.28;60.28;;;;;;;16.43;74.96;100943.56;4991484;28;20061;-91
2022/04/16 07:36:21;;;;;;;61.05;56.85;;;;;;;16.20;79.09;100949.00;4991899;28;20062;-91
2022/04/16 07:38:48;;;;;;;64.25;59.58;;;;;;;16.10;78.93;100951.50;4992127;28;20542;-91
2022/04/16 07:41:15;;;;;;;63.22;58.58;;;;;;;16.68;79.47;100955.81;4992222;28;20054;-90
2022/04/16 07:43:41;;;;;;;60.03;55.72;;;;;;;16.43;79.03;100951.63;4991797;28;20054;-90
2022/04/16 07:46:08;;;;;;;63.20;58.58;;;;;;;16.14;82.58;100958.81;4991349;28;20046;-90
2022/04/16 07:48:35;;;;;;;65.68;60.78;;;;;;;16.53;82.63;100955.53;4992411;28;20534;-91
2022/04/16 07:51:04;;;;;;;74.25;68.60;;;;;;;16.45;79.43;100949.50;4992656;28;20078;-91
2022/04/16 07:53:31;;;;;;;73.63;68.15;;;;;;;17.30;78.62;100955.00;4995517;28;20046;-91
2022/04/16 07:55:58;;;;;;;74.05;68.47;;;;;;;16.78;77.01;100945.28;4995864;28;20046;-91
2022/04/16 07:58:25;;;;;;;73.18;67.68;;;;;;;16.74;78.70;100951.38;4992102;28;20104;-90
2022/04/16 08:00:53;;;;;;;77.20;70.72;;;;;;;16.47;79.78;100963.47;4996342;28;20054;-90
2022/04/16 08:03:20;;;;;;;79.07;72.97;;;;;;;16.54;81.22;100963.34;4996177;28;20451;-90
2022/04/16 08:05:47;;;;;;;73.72;67.70;;;;;;;17.81;76.70;100958.47;4995951;28;20065;-91
2022/04/16 08:08:17;;;;;;;72.45;67.00;;;;;;;16.60;78.33;100959.69;4995839;28;20113;-90
2022/04/16 08:10:43;;;;;;;69.55;64.10;;;;;;;17.14;75.80;100960.13;4995517;28;20043;-91
2022/04/16 08:13:10;;;;;;;70.05;64.90;;;;;;;16.61;79.90;100957.81;4996129;28;20061;-91
2022/04/16 08:15:37;;;;;;;70.30;65.00;;;;;;;17.40;78.29;100958.69;4996059;28;20089;-91
2022/04/16 08:18:04;;;;;;;74.75;68.65;;;;;;;18.17;75.72;100950.88;4996136;28;20065;-91
2022/04/16 08:20:31;;;;;;;73.40;68.07;;;;;;;17.78;76.36;100950.91;4995782;28;20061;-90
2022/04/16 08:22:59;;;;;;;78.15;72.22;;;;;;;17.46;77.46;100948.84;4995543;28;20081;-91
2022/04/16 08:25:45;;;;;;;75.75;69.85;;;;;;;18.02;76.14;100936.19;4995380;28;20074;-90
2022/04/16 08:28:15;;;;;;;75.95;69.60;;;;;;;17.70;81.82;100932.50;4994892;28;20093;-91
2022/04/16 08:30:42;;;;;;;75.65;69.95;;;;;;;18.20;72.54;100936.94;4994584;28;20051;-91
2022/04/16 08:33:14;;;;;;;75.25;68.95;;;;;;;18.51;74.67;100932.69;4995977;28;20054;-90
2022/04/16 08:35:44;;;;;;;74.87;69.20;;;;;;;18.50;72.85;100931.88;4994793;28;20061;-91
2022/04/16 08:38:12;;;;;;;73.07;67.43;;;;;;;18.41;73.07;100925.34;4995428;28;20337;-91
2022/04/16 08:40:42;;;;;;;73.90;68.40;;;;;;;18.85;71.88;100924.44;4995365;28;20109;-91
2022/04/16 08:43:08;;;;;;;73.90;68.60;;;;;;;18.71;70.12;100927.53;4995497;28;20066;-91
2022/04/16 08:45:40;;;;;;;74.00;67.95;;;;;;;18.43;75.72;100928.59;4995319;28;20069;-90
2022/04/16 08:48:07;;;;;;;73.47;68.15;;;;;;;18.69;71.53;100918.06;4995534;28;20046;-90
2022/04/16 08:50:35;;;;;;;75.45;69.65;;;;;;;17.94;73.01;100915.09;4994527;28;20050;-90
2022/04/16 08:53:03;;;;;;;75.30;69.70;;;;;;;16.83;74.00;100915.88;4994808;28;20050;-90
2022/04/16 08:55:30;;;;;;;62.70;58.25;;;;;;;18.41;74.53;100914.59;4999487;28;20058;-91
2022/04/16 08:58:03;;;;;;;62.20;57.90;;;;;;;18.11;71.96;100914.25;4995415;28;20061;-90
2022/04/16 09:00:30;;;;;;;;;;;;;;;18.63;72.19;100916.41;4995096;28;20488;-92
2022/04/16 09:02:58;;;;;;;38.50;35.40;;;;;;;19.00;73.92;100911.09;4995267;28;19921;-90
2022/04/16 09:05:28;;;;;;;39.97;37.05;;;;;;;19.36;69.78;100909.47;4994510;28;20081;-91
2022/04/16 09:07:58;;;;;;;39.72;36.80;;;;;;;19.58;72.86;100900.47;4994732;28;20046;-91
2022/04/16 09:10:27;;;;;;;40.15;37.15;;;;;;;18.50;74.05;100899.63;4994030;28;20047;-91
2022/04/16 09:12:57;;;;;;;40.60;37.88;;;;;;;17.95;75.87;100902.50;4994520;28;20050;-91
2022/04/16 09:15:28;;;;;;;39.67;36.90;;;;;;;19.15;73.75;100905.88;4994940;28;20054;-91
2022/04/16 09:18:02;;;;;;;38.47;35.88;;;;;;;18.33;71.64;100904.28;4995365;28;20046;-90
2022/04/16 09:20:34;;;;;;;62.60;58.03;;;;;;;18.90;70.73;100909.16;4994158;28;20046;-91
2022/04/16 09:23:17;;;;;;;71.47;65.90;;;;;;;18.49;76.20;100894.50;4994312;28;20092;-91
2022/04/16 09:25:49;;;;;;;73.57;68.07;;;;;;;19.25;70.06;100896.22;4990288;28;20050;-91
2022/04/16 09:28:17;;;;;;;;;;;;;;;19.57;66.06;100901.53;4994470;28;20054;-91
2022/04/16 09:30:51;;;;;;;70.88;65.10;;;;;;;18.37;70.30;100896.53;4993936;28;20313;-90
2022/04/16 09:33:18;;;;;;;67.50;62.20;;;;;;;18.86;78.03;100896.47;4994762;28;20046;-91
2022/04/16 09:35:46;;;;;;;71.28;65.65;;;;;;;17.99;70.39;100891.00;4993975;28;20046;-90
2022/04/16 09:38:14;;;;;;;70.82;65.22;;;;;;;16.58;77.11;100894.78;4993680;28;20459;-90
2022/04/16 09:40:42;;;;;;;71.72;65.72;;;;;;;16.52;80.45;100892.22;4993695;28;20042;-90
2022/04/16 09:43:09;;;;;;;76.05;69.70;;;;;;;16.73;78.83;100880.81;4994190;28;20050;-91
2022/04/16 09:45:42;;;;;;;71.45;65.60;;;;;;;18.79;68.32;100888.63;4993951;28;20058;-88
2022/04/16 09:48:14;;;;;;;75.25;69.40;;;;;;;18.82;68.91;100889.97;4994417;28;20060;-90
2022/04/16 09:50:43;;;;;;;71.00;65.40;;;;;;;18.16;68.33;100879.38;4994069;28;20534;-88
2022/04/16 09:53:11;;;;;;;74.18;68.10;;;;;;;19.21;74.33;100888.66;4994027;28;20467;-89
2022/04/16 09:55:39;;;;;;;76.15;69.88;;;;;;;19.68;76.23;100885.19;4993561;28;20581;-89
2022/04/16 09:58:07;;;;;;;73.00;66.60;;;;;;;18.34;76.07;100876.34;4993938;28;20056;-89
2022/04/16 10:00:38;;;;;;;71.72;65.82;;;;;;;20.17;68.46;100875.13;4993346;28;20054;-89
2022/04/16 10:03:08;;;;;;;67.03;61.50;;;;;;;19.69;67.01;100886.00;4995061;28;20061;-89
2022/04/16 10:05:38;;;;;;;65.55;60.40;;;;;;;19.23;65.72;100881.13;4993661;28;20054;-90
2022/04/16 10:08:08;;;;;;;77.40;70.97;;;;;;;20.08;71.48;100862.16;4989652;28;20104;-89
2022/04/16 10:10:41;;;;;;;75.15;68.93;;;;;;;19.65;67.41;100869.53;4993161;28;20054;-88
2022/04/16 10:13:13;;;;;;;74.03;68.50;;;;;;;19.89;66.85;100850.25;4993179;28;20125;-90
2022/04/16 10:16:10;;;;;;;72.80;67.10;;;;;;;21.09;64.91;100859.00;4993264;28;20046;-89
2022/04/16 10:18:37;;;;;;;79.68;73.25;;;;;;;21.12;61.81;100853.88;4993554;28;20050;-89
2022/04/16 10:21:15;;;;;;;75.38;69.45;;;;;;;19.06;66.76;100842.78;4993163;28;20050;-92
2022/04/16 10:23:42;;;;;;;72.18;66.63;;;;;;;20.24;65.56;100844.13;4994545;28;20471;-91
2022/04/16 10:26:10;;;;;;;72.68;67.00;;;;;;;18.67;65.63;100845.72;4993396;28;20050;-90
2022/04/16 10:28:41;;;;;;;74.93;68.82;;;;;;;20.45;63.58;100839.56;4992862;28;20046;-93
2022/04/16 10:31:21;;;;;;;70.93;65.32;;;;;;;20.40;63.65;100844.16;4989153;28;20427;-91
2022/04/16 10:34:00;;;;;;;71.32;65.72;;;;;;;19.19;63.28;100841.53;4976510;28;20054;-89
2022/04/16 10:36:32;;;;;;;68.25;63.20;;;;;;;20.08;63.23;100845.97;4992722;28;20495;-89
2022/04/16 10:39:00;;;;;;;71.05;65.45;;;;;;;20.29;59.92;100837.94;4993374;28;20042;-88
2022/04/16 10:41:31;;;;;;;72.80;67.30;;;;;;;20.83;62.91;100847.44;4993079;28;20105;-89
2022/04/16 10:44:00;;;;;;;75.15;69.35;;;;;;;21.02;60.97;100856.56;4989253;28;20427;-90
2022/04/16 10:46:41;;;;;;;74.43;68.68;;;;;;;22.61;64.96;100849.41;4993008;28;20404;-89
2022/04/16 10:49:08;;;;;;;72.97;67.07;;;;;;;20.65;62.06;100852.28;4992753;28;20074;-88
2022/04/16 10:51:40;;;;;;;75.38;69.10;;;;;;;21.07;62.98;100859.28;4992648;28;20058;-89
2022/04/16 10:54:11;;;;;;;78.03;72.15;;;;;;;19.78;62.71;100859.34;4992425;28;20511;-89
2022/04/16 10:56:40;;;;;;;72.50;66.70;;;;;;;20.81;64.37;100858.47;4992862;28;20062;-89
2022/04/16 10:59:11;;;;;;;68.00;62.67;;;;;;;20.73;65.19;100856.34;4992501;28;20602;-88
2022/04/16 11:01:55;;;;;;;68.40;63.10;;;;;;;20.77;65.70;100852.00;4992660;28;20054;-88
2022/04/16 11:04:41;;;;;;;80.57;74.20;;;;;;;20.94;67.32;100849.84;4996902;28;20045;-91
2022/04/16 11:07:10;;;;;;;75.07;68.88;;;;;;;20.14;64.27;100844.91;4986660;28;20046;-89
2022/04/16 11:09:39;;;;;;;76.50;70.70;;;;;;;19.56;62.68;100843.34;4992670;28;20050;-90
2022/04/16 11:12:07;;;;;;;74.20;68.03;;;;;;;20.11;64.24;100841.94;4992147;28;20270;-90
2022/04/16 11:14:36;;;;;;;74.45;68.25;;;;;;;19.67;67.35;100845.84;4992518;28;20045;-89
2022/04/16 11:17:05;;;;;;;72.05;66.32;;;;;;;20.72;61.14;100843.91;4993207;28;20046;-89
2022/04/16 11:19:32;;;;;;;77.78;71.68;;;;;;;19.77;65.26;100849.66;4992244;28;20519;-89
2022/04/16 11:21:59;;;;;;;76.43;70.43;;;;;;;21.42;63.22;100849.50;4992399;28;20050;-90
2022/04/16 11:24:28;;;;;;;76.10;69.95;;;;;;;20.32;60.69;100845.47;4992310;28;20081;-89
2022/04/16 11:35:15;;;;;;;76.72;70.53;;;;;;;21.72;62.74;100832.34;4996325;28;20534;-89
2022/04/16 11:37:43;;;;;;;76.80;70.55;;;;;;;21.98;60.56;100829.53;4996771;28;20054;-90
2022/04/16 11:40:18;;;;;;;78.13;71.70;;;;;;;20.83;64.29;100831.22;4996578;28;20038;-89